»·PEaware :: WAT169 KDEN-KSAN

WAT169 :: KDEN-KSAN

FLIGHT INFORMATION

Flight Status: Arrived
Operator:
Walker Air Transport
More flights by this operator :: More flights under this callsign
Pilot: Marty P. (27464)
Aircraft: BOEING 737-800
(B738)
More flights by this aircraft type
Origin: KDEN Denver Intl
United States
Destination: KSAN San Diego Intl-Lindbergh
United States
More flights between these airports :: More routes between these airports
Route: BAYLR6 TEHRU PLNDL Q86 TTRUE LUCKI1
File this flight plan on PilotEdge
Remarks:
Altitude:
(Current/Filed)
38,000ft
Speed:
(Current/Filed)
480kts
Departed: 25-Oct-20 09:41 AM
Arrived: 25-Oct-20 11:38 AM
Distance/Time
Traveled:
741nm/1:57
Distance/Time
To Go:
Arrived

Flight Plot

Page will automatically refresh every two minutes.

Flight plan parsing failed; only flown route is shown


Map Options




Map Legend


Flown Route
Filed Route
Departure Airport
Arrival Airport
Navaid (VOR, NDB)
Fix

Horizontal Profiles

Position Reports

Time Latitude Longitude Heading Altitude Ground
Speed
25-Oct-20 09:14 39.863575 -104.677852 177 5444ft 0kts
25-Oct-20 09:16 39.863575 -104.677852 177 5444ft 0kts
25-Oct-20 09:16 39.863575 -104.677852 177 5444ft 0kts
25-Oct-20 09:17 39.863575 -104.677852 177 5444ft 0kts
25-Oct-20 09:18 39.863575 -104.677852 177 5444ft 0kts
25-Oct-20 09:19 39.863575 -104.677852 177 5444ft 0kts
25-Oct-20 09:20 39.863575 -104.677852 177 5444ft 0kts
25-Oct-20 09:21 39.863575 -104.677852 177 5444ft 0kts
25-Oct-20 09:22 39.863853 -104.677864 177 5444ft 2kts
25-Oct-20 09:23 39.864460 -104.677891 177 5444ft 2kts
25-Oct-20 09:24 39.864778 -104.677559 267 5444ft 1kts
25-Oct-20 09:25 39.864781 -104.678898 270 5444ft 3kts
25-Oct-20 09:26 39.864791 -104.680304 270 5444ft 3kts
25-Oct-20 09:27 39.864649 -104.681613 225 5444ft 3kts
25-Oct-20 09:28 39.864257 -104.682778 270 5444ft 3kts
25-Oct-20 09:29 39.864258 -104.682955 270 5444ft 0kts
25-Oct-20 09:30 39.864258 -104.682955 270 5444ft 0kts
25-Oct-20 09:31 39.864258 -104.682955 270 5444ft 0kts
25-Oct-20 09:32 39.864258 -104.682955 270 5444ft 0kts
25-Oct-20 09:33 39.864258 -104.682955 270 5444ft 0kts
25-Oct-20 09:34 39.864261 -104.683202 270 5444ft 7kts
25-Oct-20 09:35 39.860608 -104.683954 180 5444ft 24kts
25-Oct-20 09:36 39.853514 -104.684031 180 5444ft 21kts
25-Oct-20 09:37 39.846709 -104.684130 183 5444ft 22kts
25-Oct-20 09:38 39.841912 -104.684171 180 5444ft 8kts
25-Oct-20 09:39 39.840703 -104.684581 263 5444ft 7kts
25-Oct-20 09:40 39.840628 -104.718109 272 5728ft 170kts
25-Oct-20 09:41 39.831285 -104.785530 238 7036ft 240kts
25-Oct-20 09:42 39.793813 -104.863781 241 10046ft 278kts
25-Oct-20 09:43 39.765462 -104.957657 255 14152ft 271kts
25-Oct-20 09:44 39.736715 -105.064058 247 15583ft 339kts
25-Oct-20 09:45 39.699536 -105.176309 248 18541ft 344kts
25-Oct-20 09:46 39.661503 -105.292308 248 20874ft 356kts
25-Oct-20 09:47 39.622309 -105.411009 248 22898ft 366kts
25-Oct-20 09:48 39.581576 -105.534131 248 24675ft 375kts
25-Oct-20 09:49 39.542104 -105.659608 250 26219ft 383kts
25-Oct-20 09:50 39.505989 -105.789650 250 27620ft 392kts
25-Oct-20 09:51 39.469397 -105.921536 250 29139ft 395kts
25-Oct-20 09:52 39.432593 -106.053650 250 30796ft 391kts
25-Oct-20 09:53 39.396398 -106.182956 250 32323ft 385kts
25-Oct-20 09:54 39.360340 -106.309597 249 33730ft 379kts
25-Oct-20 09:55 39.324886 -106.434417 249 34940ft 374kts
25-Oct-20 09:56 39.289936 -106.557335 249 35969ft 370kts
25-Oct-20 09:57 39.251662 -106.678953 243 36801ft 369kts
25-Oct-20 09:58 39.198568 -106.791333 236 37581ft 371kts
25-Oct-20 09:59 39.135586 -106.896235 235 37869ft 381kts
25-Oct-20 10:00 39.069013 -107.005064 235 37862ft 392kts
25-Oct-20 10:01 39.001088 -107.115702 235 37856ft 399kts
25-Oct-20 10:02 38.932291 -107.227388 235 37841ft 402kts
25-Oct-20 10:03 38.862646 -107.340061 235 37825ft 404kts
25-Oct-20 10:04 38.792754 -107.452746 235 37824ft 405kts
25-Oct-20 10:05 38.722690 -107.565270 235 37825ft 405kts
25-Oct-20 10:06 38.652682 -107.677297 234 37826ft 405kts
25-Oct-20 10:07 38.582210 -107.789423 234 37824ft 407kts
25-Oct-20 10:08 38.512004 -107.900965 234 37826ft 407kts
25-Oct-20 10:09 38.441793 -108.012194 233 37815ft 407kts
25-Oct-20 10:10 38.370842 -108.124267 233 37793ft 406kts
25-Oct-20 10:11 38.300404 -108.235125 233 37834ft 404kts
25-Oct-20 10:12 38.230275 -108.345096 233 37889ft 403kts
25-Oct-20 10:13 38.160072 -108.454879 233 37890ft 403kts
25-Oct-20 10:14 38.090141 -108.563905 233 37889ft 403kts
25-Oct-20 10:15 38.019334 -108.673846 233 37890ft 404kts
25-Oct-20 10:16 37.948403 -108.783335 233 37890ft 406kts
25-Oct-20 10:17 37.876940 -108.893484 233 37888ft 408kts
25-Oct-20 10:18 37.804474 -109.004886 233 37884ft 411kts
25-Oct-20 10:19 37.732018 -109.115902 233 37896ft 412kts
25-Oct-20 10:20 37.658899 -109.227549 232 37908ft 413kts
25-Oct-20 10:21 37.585542 -109.339167 232 37908ft 414kts
25-Oct-20 10:22 37.511954 -109.450747 232 37908ft 414kts
25-Oct-20 10:23 37.438708 -109.561427 232 37908ft 415kts
25-Oct-20 10:24 37.364987 -109.672415 232 37909ft 415kts
25-Oct-20 10:25 37.290507 -109.783929 232 37906ft 417kts
25-Oct-20 10:26 37.216091 -109.895182 232 37898ft 418kts
25-Oct-20 10:27 37.141169 -110.006854 232 37872ft 418kts
25-Oct-20 10:28 37.066217 -110.118218 232 37853ft 420kts
25-Oct-20 10:29 36.991063 -110.229520 232 37843ft 420kts
25-Oct-20 10:30 36.915403 -110.341171 232 37844ft 420kts
25-Oct-20 10:31 36.840028 -110.452009 232 37844ft 420kts
25-Oct-20 10:32 36.764351 -110.562931 232 37844ft 420kts
25-Oct-20 10:33 36.688570 -110.673599 231 37844ft 421kts
25-Oct-20 10:34 36.612287 -110.784437 231 37847ft 422kts
25-Oct-20 10:35 36.535892 -110.895269 231 37808ft 424kts
25-Oct-20 10:36 36.459191 -111.006230 231 37807ft 425kts
25-Oct-20 10:37 36.382124 -111.117354 231 37807ft 426kts
25-Oct-20 10:38 36.304646 -111.228705 231 37807ft 427kts
25-Oct-20 10:39 36.227274 -111.339541 231 37807ft 428kts
25-Oct-20 10:40 36.149260 -111.450932 231 37855ft 428kts
25-Oct-20 10:41 36.071050 -111.562196 231 37938ft 429kts
25-Oct-20 10:42 35.992775 -111.673193 231 37954ft 431kts
25-Oct-20 10:43 35.913650 -111.784906 231 37954ft 434kts
25-Oct-20 10:44 35.837427 -111.899193 237 37938ft 434kts
25-Oct-20 10:45 35.773753 -112.025102 241 37944ft 434kts
25-Oct-20 10:46 35.713734 -112.153473 241 37944ft 435kts
25-Oct-20 10:47 35.652912 -112.281836 241 37945ft 435kts
25-Oct-20 10:48 35.592429 -112.410248 241 37945ft 435kts
25-Oct-20 10:50 35.532670 -112.538337 241 37944ft 434kts
25-Oct-20 10:51 35.472671 -112.666812 241 37952ft 434kts
25-Oct-20 10:52 35.412246 -112.795539 241 37962ft 435kts
25-Oct-20 10:53 35.351761 -112.924124 241 37927ft 436kts
25-Oct-20 10:54 35.291113 -113.052659 241 37874ft 437kts
25-Oct-20 10:55 35.230139 -113.181292 241 37872ft 437kts
25-Oct-20 10:56 35.168567 -113.309302 241 37869ft 437kts
25-Oct-20 10:57 35.107205 -113.437440 241 37872ft 438kts
25-Oct-20 10:58 35.045877 -113.565371 241 37873ft 438kts
25-Oct-20 10:59 34.984044 -113.693887 240 37871ft 439kts
25-Oct-20 11:00 34.922115 -113.822025 240 37871ft 440kts
25-Oct-20 11:01 34.860116 -113.949677 239 37873ft 440kts
25-Oct-20 11:02 34.794380 -114.076049 239 37862ft 442kts
25-Oct-20 11:03 34.728814 -114.202446 239 37825ft 444kts
25-Oct-20 11:04 34.662919 -114.329593 239 37807ft 444kts
25-Oct-20 11:05 34.586969 -114.448063 232 37808ft 446kts
25-Oct-20 11:05 34.519057 -114.543159 231 37792ft 448kts
25-Oct-20 11:07 34.423609 -114.675291 230 37797ft 449kts
25-Oct-20 11:07 34.354576 -114.770280 230 37797ft 450kts
25-Oct-20 11:09 34.257731 -114.902371 230 37795ft 452kts
25-Oct-20 11:09 34.188149 -114.997173 230 37804ft 454kts
25-Oct-20 11:11 34.090224 -115.130413 230 37823ft 456kts
25-Oct-20 11:11 34.021343 -115.223799 230 37827ft 431kts
25-Oct-20 11:12 33.942813 -115.329881 230 37838ft 426kts
25-Oct-20 11:13 33.865728 -115.434009 230 37835ft 418kts
25-Oct-20 11:14 33.786668 -115.540843 230 35984ft 444kts
25-Oct-20 11:15 33.705052 -115.650783 229 32993ft 455kts
25-Oct-20 11:16 33.618962 -115.768811 236 29776ft 480kts
25-Oct-20 11:17 33.541009 -115.900673 238 26574ft 491kts
25-Oct-20 11:18 33.462133 -116.036223 238 24133ft 498kts
25-Oct-20 11:19 33.386617 -116.165989 237 20635ft 455kts
25-Oct-20 11:20 33.300187 -116.269524 213 17079ft 421kts
25-Oct-20 11:21 33.203251 -116.328663 209 13625ft 369kts
25-Oct-20 11:22 33.117669 -116.378763 209 12460ft 318kts
25-Oct-20 11:23 33.041404 -116.423360 209 12012ft 305kts
25-Oct-20 11:24 32.972065 -116.477407 223 11444ft 292kts
25-Oct-20 11:25 32.914670 -116.535939 223 9980ft 254kts
25-Oct-20 11:26 32.864551 -116.586457 223 9023ft 225kts
25-Oct-20 11:27 32.817217 -116.634115 223 8110ft 223kts
25-Oct-20 11:28 32.769768 -116.687187 236 7379ft 252kts
25-Oct-20 11:29 32.736217 -116.757451 241 6058ft 224kts
25-Oct-20 11:30 32.706822 -116.820617 245 5971ft 219kts
25-Oct-20 11:31 32.685379 -116.889244 250 4950ft 217kts
25-Oct-20 11:32 32.679117 -116.959252 280 4240ft 215kts
25-Oct-20 11:33 32.692868 -117.021247 283 3048ft 180kts
25-Oct-20 11:34 32.705105 -117.072258 283 2078ft 153kts
25-Oct-20 11:35 32.717008 -117.121396 283 1108ft 157kts
25-Oct-20 11:36 32.729037 -117.170916 283 276ft 158kts
25-Oct-20 11:37 32.736333 -117.201690 251 27ft 16kts
25-Oct-20 11:38 32.734918 -117.202458 196 27ft 15kts
25-Oct-20 11:39 32.732930 -117.201732 99 27ft 3kts

Navigation Log

Ident Type
Flight plan parsing failed, navigation log unavailable